Time;durP1;ratioP1;P1;durP2;ratioP2;P2;SDS_P1;SDS_P2;PMS_P1;PMS_P2;Temp;Humidity;BMP_temperature;BMP_pressure;BME280_temperature;BME280_humidity;BME280_pressure;Samples;Min_cycle;Max_cycle;Signal;HPM_P1;HPM_P2
2023/09/15 00:00:24;;;;;;;2.80;2.05;;;;;;;;;;5057031;28;20367;-59
2023/09/15 00:02:56;;;;;;;3.10;2.50;;;;;;;;;;5057215;28;20351;-59
2023/09/15 00:05:23;;;;;;;3.03;1.90;;;;;;;;;;5057190;28;20029;-59
2023/09/15 00:07:49;;;;;;;2.97;1.98;;;;;;;;;;5057122;28;20029;-59
2023/09/15 00:10:15;;;;;;;3.33;2.42;;;;;;;;;;5056916;28;20025;-59
2023/09/15 00:12:44;;;;;;;4.90;2.30;;;;;;;;;;5056429;28;20112;-59
2023/09/15 00:15:11;;;;;;;3.67;2.50;;;;;;;;;;5056648;28;20021;-59
2023/09/15 00:17:38;;;;;;;3.28;2.15;;;;;;;;;;5056448;28;20055;-59
2023/09/15 00:20:13;;;;;;;3.88;2.33;;;;;;;;;;5056887;28;20083;-59
2023/09/15 00:22:49;;;;;;;5.20;2.05;;;;;;;;;;5057105;28;20028;-59
2023/09/15 00:25:18;;;;;;;2.42;1.75;;;;;;;;;;5056225;28;20109;-60
2023/09/15 00:27:44;;;;;;;2.55;1.85;;;;;;;;;;5056488;28;20027;-59
2023/09/15 00:30:10;;;;;;;3.33;2.25;;;;;;;;;;5056625;28;20116;-59
2023/09/15 00:32:36;;;;;;;3.65;2.13;;;;;;;;;;5056105;28;20029;-60
2023/09/15 00:35:02;;;;;;;3.72;2.08;;;;;;;;;;5056335;28;20028;-60
2023/09/15 00:37:28;;;;;;;4.80;2.25;;;;;;;;;;5056258;28;20049;-59
2023/09/15 00:39:54;;;;;;;4.38;2.72;;;;;;;;;;5055131;28;20040;-60
2023/09/15 00:42:21;;;;;;;3.08;2.00;;;;;;;;;;5055848;28;20017;-59
2023/09/15 00:44:47;;;;;;;2.95;2.15;;;;;;;;;;5056360;28;20025;-59
2023/09/15 00:47:13;;;;;;;3.55;2.10;;;;;;;;;;5055805;28;20371;-60
2023/09/15 00:49:39;;;;;;;3.78;2.20;;;;;;;;;;5056081;28;20029;-59
2023/09/15 00:52:05;;;;;;;6.78;2.55;;;;;;;;;;5055761;28;20452;-60
2023/09/15 00:54:32;;;;;;;3.72;2.20;;;;;;;;;;5055775;28;20028;-60
2023/09/15 00:56:59;;;;;;;3.00;2.00;;;;;;;;;;5055614;28;20021;-59
2023/09/15 00:59:25;;;;;;;4.05;2.90;;;;;;;;;;5056066;28;20033;-59
2023/09/15 01:01:51;;;;;;;2.60;2.10;;;;;;;;;;5055817;28;20036;-59
2023/09/15 01:04:18;;;;;;;3.38;2.20;;;;;;;;;;5055554;28;20025;-59
2023/09/15 01:06:45;;;;;;;3.72;2.70;;;;;;;;;;5055972;28;20021;-59
2023/09/15 01:09:11;;;;;;;4.10;2.83;;;;;;;;;;5056048;28;20075;-59
2023/09/15 01:11:37;;;;;;;3.80;2.35;;;;;;;;;;5055324;28;20021;-59
2023/09/15 01:14:03;;;;;;;3.72;2.67;;;;;;;;;;5055342;28;20031;-59
2023/09/15 01:16:36;;;;;;;4.97;2.63;;;;;;;;;;5055326;28;20029;-59
2023/09/15 01:19:19;;;;;;;3.42;2.03;;;;;;;;;;5055453;28;20374;-59
2023/09/15 01:22:03;;;;;;;3.40;2.20;;;;;;;;;;5055796;28;20035;-60
2023/09/15 01:24:42;;;;;;;7.03;3.08;;;;;;;;;;5055414;28;20040;-59
2023/09/15 01:27:17;;;;;;;3.70;2.22;;;;;;;;;;5055411;28;20052;-59
2023/09/15 01:29:48;;;;;;;4.57;2.60;;;;;;;;;;5055863;28;20036;-59
2023/09/15 01:32:15;;;;;;;4.38;3.30;;;;;;;;;;5054983;28;20021;-59
2023/09/15 01:34:46;;;;;;;3.38;2.58;;;;;;;;;;5055380;28;20466;-59
2023/09/15 01:37:12;;;;;;;6.00;3.50;;;;;;;;;;5055143;28;20048;-59
2023/09/15 01:39:38;;;;;;;4.75;2.70;;;;;;;;;;5054788;28;20076;-59
2023/09/15 01:42:04;;;;;;;4.50;2.78;;;;;;;;;;5055700;28;20491;-59
2023/09/15 01:44:30;;;;;;;3.53;2.45;;;;;;;;;;5054448;28;20048;-59
2023/09/15 01:46:56;;;;;;;4.10;3.20;;;;;;;;;;5054344;28;20017;-59
2023/09/15 01:49:22;;;;;;;3.85;2.85;;;;;;;;;;5054618;28;20028;-59
2023/09/15 01:51:49;;;;;;;3.47;2.35;;;;;;;;;;5054359;28;20021;-59
2023/09/15 01:54:16;;;;;;;3.28;2.53;;;;;;;;;;5054545;28;20017;-59
2023/09/15 01:56:42;;;;;;;6.95;2.97;;;;;;;;;;5054462;28;20060;-59
2023/09/15 01:59:08;;;;;;;4.38;2.67;;;;;;;;;;5054697;28;20060;-59
2023/09/15 02:01:34;;;;;;;3.17;2.28;;;;;;;;;;5055202;28;20556;-59
2023/09/15 02:03:59;;;;;;;3.20;2.65;;;;;;;;;;5054451;28;20032;-59
2023/09/15 02:06:26;;;;;;;5.97;2.75;;;;;;;;;;5054375;28;20029;-59
2023/09/15 02:08:51;;;;;;;3.40;2.38;;;;;;;;;;5054791;28;20143;-59
2023/09/15 02:11:18;;;;;;;4.05;2.38;;;;;;;;;;5054489;28;20052;-59
2023/09/15 02:13:44;;;;;;;3.97;2.50;;;;;;;;;;5054441;28;20029;-59
2023/09/15 02:16:11;;;;;;;5.43;2.88;;;;;;;;;;5054662;28;20036;-59
2023/09/15 02:18:37;;;;;;;3.75;2.83;;;;;;;;;;5054557;28;20082;-59
2023/09/15 02:21:06;;;;;;;3.97;2.83;;;;;;;;;;5054650;28;20072;-59
2023/09/15 02:23:32;;;;;;;4.75;2.58;;;;;;;;;;5054247;28;20103;-59
2023/09/15 02:26:02;;;;;;;3.90;3.00;;;;;;;;;;5054277;28;20029;-59
2023/09/15 02:28:28;;;;;;;5.88;2.67;;;;;;;;;;5053929;28;20459;-59
2023/09/15 02:30:55;;;;;;;3.72;2.70;;;;;;;;;;5053928;28;20028;-59
2023/09/15 02:33:22;;;;;;;4.70;2.92;;;;;;;;;;5053523;28;20056;-60
2023/09/15 02:35:48;;;;;;;3.45;2.88;;;;;;;;;;5054080;28;20025;-59
2023/09/15 02:38:14;;;;;;;4.00;2.97;;;;;;;;;;5053597;28;20091;-59
2023/09/15 02:40:40;;;;;;;4.22;2.65;;;;;;;;;;5053735;28;20074;-59
2023/09/15 02:43:08;;;;;;;4.45;2.92;;;;;;;;;;5053755;28;20557;-59
2023/09/15 02:45:38;;;;;;;3.47;2.65;;;;;;;;;;5053345;28;20055;-59
2023/09/15 02:48:04;;;;;;;5.10;3.17;;;;;;;;;;5053241;28;20588;-59
2023/09/15 02:50:30;;;;;;;3.13;2.33;;;;;;;;;;5053982;28;20035;-59
2023/09/15 02:52:58;;;;;;;4.10;2.58;;;;;;;;;;5053640;28;20033;-59
2023/09/15 02:55:24;;;;;;;3.40;2.70;;;;;;;;;;5053495;28;20029;-59
2023/09/15 02:57:51;;;;;;;3.08;2.13;;;;;;;;;;5053431;28;20487;-59
2023/09/15 03:00:19;;;;;;;4.30;3.38;;;;;;;;;;5054276;28;20413;-59
2023/09/15 03:02:45;;;;;;;4.70;3.20;;;;;;;;;;5052648;28;20033;-59
2023/09/15 03:05:12;;;;;;;4.18;3.45;;;;;;;;;;5053769;28;20036;-59
2023/09/15 03:07:39;;;;;;;4.68;2.80;;;;;;;;;;5054124;28;20079;-59
2023/09/15 03:10:07;;;;;;;4.10;3.13;;;;;;;;;;5054008;28;20107;-59
2023/09/15 03:12:33;;;;;;;3.47;2.70;;;;;;;;;;5053916;28;20033;-59
2023/09/15 03:14:59;;;;;;;4.85;2.85;;;;;;;;;;5053178;28;20025;-59
2023/09/15 03:17:25;;;;;;;5.38;4.00;;;;;;;;;;5053269;28;20025;-59
2023/09/15 03:19:51;;;;;;;5.15;2.85;;;;;;;;;;5054148;28;20374;-59
2023/09/15 03:22:17;;;;;;;5.25;3.28;;;;;;;;;;5053317;28;20029;-59
2023/09/15 03:24:42;;;;;;;3.30;2.35;;;;;;;;;;5053552;28;20024;-59
2023/09/15 03:27:09;;;;;;;3.97;2.50;;;;;;;;;;5053281;28;20091;-59
2023/09/15 03:29:35;;;;;;;5.50;2.90;;;;;;;;;;5053847;28;20116;-59
2023/09/15 03:32:01;;;;;;;4.28;2.72;;;;;;;;;;5053190;28;20029;-59
2023/09/15 03:34:26;;;;;;;3.42;3.08;;;;;;;;;;5053261;28;20104;-59
2023/09/15 03:36:52;;;;;;;4.50;3.15;;;;;;;;;;5053293;28;20067;-59
2023/09/15 03:39:19;;;;;;;3.20;2.63;;;;;;;;;;5053063;28;20041;-59
2023/09/15 03:41:45;;;;;;;3.83;3.08;;;;;;;;;;5053045;28;20087;-59
2023/09/15 03:44:11;;;;;;;4.55;3.30;;;;;;;;;;5053827;28;20436;-59
2023/09/15 03:46:39;;;;;;;3.97;3.05;;;;;;;;;;5052954;28;20108;-59
2023/09/15 03:49:05;;;;;;;5.50;3.63;;;;;;;;;;5053330;28;20035;-59
2023/09/15 03:51:31;;;;;;;3.80;3.25;;;;;;;;;;5053199;28;20017;-59
2023/09/15 03:53:56;;;;;;;5.90;3.90;;;;;;;;;;5053017;28;20064;-59
2023/09/15 03:56:24;;;;;;;4.47;3.17;;;;;;;;;;5053256;28;20102;-59
2023/09/15 03:58:51;;;;;;;4.78;3.90;;;;;;;;;;5053324;28;20040;-59
2023/09/15 04:01:21;;;;;;;6.38;3.70;;;;;;;;;;5053523;28;20061;-60
2023/09/15 04:03:47;;;;;;;5.03;3.83;;;;;;;;;;5052979;28;20037;-59
2023/09/15 04:06:13;;;;;;;6.05;3.53;;;;;;;;;;5052921;28;20025;-61
2023/09/15 04:08:39;;;;;;;5.55;3.67;;;;;;;;;;5053556;28;20354;-59
2023/09/15 04:11:07;;;;;;;6.93;3.75;;;;;;;;;;5053242;28;20542;-59
2023/09/15 04:13:32;;;;;;;5.32;3.85;;;;;;;;;;5054578;28;20078;-59
2023/09/15 04:16:00;;;;;;;4.25;3.10;;;;;;;;;;5056596;28;20036;-59
2023/09/15 04:18:26;;;;;;;4.70;3.60;;;;;;;;;;5056733;28;20481;-59
2023/09/15 04:20:52;;;;;;;6.03;3.63;;;;;;;;;;5056689;28;20447;-59
2023/09/15 04:23:18;;;;;;;8.25;3.85;;;;;;;;;;5056358;28;20366;-59
2023/09/15 04:25:44;;;;;;;4.57;3.47;;;;;;;;;;5056389;28;20025;-59
2023/09/15 04:28:10;;;;;;;4.13;3.33;;;;;;;;;;5056284;28;20459;-59
2023/09/15 04:30:36;;;;;;;4.05;3.40;;;;;;;;;;5056533;28;20025;-59
2023/09/15 04:33:02;;;;;;;4.13;3.65;;;;;;;;;;5056105;28;20021;-59
2023/09/15 04:35:28;;;;;;;3.88;3.35;;;;;;;;;;5056143;28;20029;-59
2023/09/15 04:37:54;;;;;;;4.97;3.88;;;;;;;;;;5056214;28;20048;-59
2023/09/15 04:40:20;;;;;;;4.05;2.95;;;;;;;;;;5056759;28;20027;-59
2023/09/15 04:42:46;;;;;;;3.65;3.25;;;;;;;;;;5056028;28;20111;-59
2023/09/15 04:45:12;;;;;;;4.32;3.60;;;;;;;;;;5056497;28;20108;-59
2023/09/15 04:47:40;;;;;;;6.43;3.22;;;;;;;;;;5055958;28;20486;-59
2023/09/15 04:50:07;;;;;;;4.60;3.97;;;;;;;;;;5056028;28;20040;-59
2023/09/15 04:52:33;;;;;;;4.22;3.00;;;;;;;;;;5055546;28;20463;-59
2023/09/15 04:54:59;;;;;;;4.53;3.60;;;;;;;;;;5056063;28;20094;-60
2023/09/15 04:57:25;;;;;;;4.30;3.47;;;;;;;;;;5055909;28;20029;-59
2023/09/15 04:59:53;;;;;;;4.28;3.65;;;;;;;;;;5055986;28;20025;-59
2023/09/15 05:02:20;;;;;;;6.93;3.88;;;;;;;;;;5055602;28;20033;-59
2023/09/15 05:04:46;;;;;;;7.60;4.80;;;;;;;;;;5056138;28;20039;-59
2023/09/15 05:07:12;;;;;;;4.10;3.58;;;;;;;;;;5056040;28;20047;-59
2023/09/15 05:09:38;;;;;;;4.57;3.53;;;;;;;;;;5055545;28;20028;-59
2023/09/15 05:12:04;;;;;;;4.18;3.67;;;;;;;;;;5055437;28;20044;-59
2023/09/15 05:14:30;;;;;;;4.38;3.97;;;;;;;;;;5055368;28;20029;-59
2023/09/15 05:16:56;;;;;;;5.53;4.53;;;;;;;;;;5055029;28;20463;-59
2023/09/15 05:19:22;;;;;;;4.22;3.45;;;;;;;;;;5055688;28;20048;-59
2023/09/15 05:21:48;;;;;;;5.47;4.13;;;;;;;;;;5055214;28;20082;-60
2023/09/15 05:24:14;;;;;;;5.15;4.32;;;;;;;;;;5055176;28;20479;-59
2023/09/15 05:26:40;;;;;;;4.97;4.22;;;;;;;;;;5055080;28;20469;-60
2023/09/15 05:29:06;;;;;;;4.82;4.10;;;;;;;;;;5055751;28;20025;-59
2023/09/15 05:31:32;;;;;;;7.18;4.38;;;;;;;;;;5055618;28;20021;-59
2023/09/15 05:33:58;;;;;;;5.22;4.47;;;;;;;;;;5055031;28;20036;-59
2023/09/15 05:36:24;;;;;;;4.40;3.97;;;;;;;;;;5055061;28;20120;-59
2023/09/15 05:38:50;;;;;;;6.47;4.53;;;;;;;;;;5054905;28;20043;-59
2023/09/15 05:41:16;;;;;;;8.02;4.28;;;;;;;;;;5055238;28;20055;-59
2023/09/15 05:43:42;;;;;;;7.63;4.40;;;;;;;;;;5055373;28;20079;-59
2023/09/15 05:46:08;;;;;;;4.03;3.38;;;;;;;;;;5054162;28;20371;-59
2023/09/15 05:48:34;;;;;;;5.40;4.20;;;;;;;;;;5053850;28;20040;-59
2023/09/15 05:51:03;;;;;;;5.90;4.43;;;;;;;;;;5055295;28;20051;-59
2023/09/15 05:53:29;;;;;;;5.28;4.03;;;;;;;;;;5055050;28;20025;-59
2023/09/15 05:55:56;;;;;;;5.03;3.97;;;;;;;;;;5054670;28;20521;-59
2023/09/15 05:58:22;;;;;;;5.75;4.18;;;;;;;;;;5054992;28;20033;-59
2023/09/15 06:00:50;;;;;;;6.25;4.05;;;;;;;;;;5055069;28;20055;-59
2023/09/15 06:03:16;;;;;;;4.63;3.80;;;;;;;;;;5054911;28;20418;-59
2023/09/15 06:05:45;;;;;;;6.18;4.35;;;;;;;;;;5054537;28;20017;-59
2023/09/15 06:08:11;;;;;;;6.70;4.63;;;;;;;;;;5054141;28;20021;-60
2023/09/15 06:10:39;;;;;;;7.35;5.00;;;;;;;;;;5054454;28;20366;-60
2023/09/15 06:13:05;;;;;;;5.50;4.38;;;;;;;;;;5054473;28;20472;-60
2023/09/15 06:15:31;;;;;;;6.07;4.22;;;;;;;;;;5054542;28;20021;-59
2023/09/15 06:17:57;;;;;;;7.30;5.30;;;;;;;;;;5054125;28;20068;-60
2023/09/15 06:20:23;;;;;;;6.65;4.70;;;;;;;;;;5054497;28;20467;-60
2023/09/15 06:22:50;;;;;;;6.10;4.78;;;;;;;;;;5054551;28;20459;-60
2023/09/15 06:25:16;;;;;;;5.10;4.03;;;;;;;;;;5054026;28;20479;-60
2023/09/15 06:27:42;;;;;;;5.60;4.40;;;;;;;;;;5054476;28;20078;-60
2023/09/15 06:30:08;;;;;;;8.32;5.05;;;;;;;;;;5054526;28;20112;-60
2023/09/15 06:32:34;;;;;;;6.88;5.75;;;;;;;;;;5053871;28;20037;-60
2023/09/15 06:35:00;;;;;;;6.82;4.15;;;;;;;;;;5053921;28;20047;-60
2023/09/15 06:37:26;;;;;;;5.20;4.05;;;;;;;;;;5053662;28;20056;-60
2023/09/15 06:39:52;;;;;;;6.28;4.18;;;;;;;;;;5053792;28;20120;-60
2023/09/15 06:42:18;;;;;;;5.10;4.00;;;;;;;;;;5054195;28;20036;-60
2023/09/15 06:44:44;;;;;;;6.70;4.20;;;;;;;;;;5053828;28;20048;-60
2023/09/15 06:47:09;;;;;;;4.63;3.80;;;;;;;;;;5053753;28;20031;-60
2023/09/15 06:49:35;;;;;;;5.68;4.47;;;;;;;;;;5053765;28;20480;-60
2023/09/15 06:52:01;;;;;;;4.13;3.55;;;;;;;;;;5053575;28;20120;-60
2023/09/15 06:54:27;;;;;;;5.03;3.58;;;;;;;;;;5053480;28;20108;-60
2023/09/15 06:56:53;;;;;;;4.03;3.63;;;;;;;;;;5053607;28;20083;-60
2023/09/15 06:59:19;;;;;;;6.75;4.43;;;;;;;;;;5054118;28;20037;-60
2023/09/15 07:01:45;;;;;;;5.40;3.80;;;;;;;;;;5053453;28;20017;-60
2023/09/15 07:04:13;;;;;;;5.50;3.78;;;;;;;;;;5053501;28;20108;-60
2023/09/15 07:06:39;;;;;;;4.55;3.75;;;;;;;;;;5053911;28;20370;-60
2023/09/15 07:09:05;;;;;;;5.53;4.22;;;;;;;;;;5053978;28;20119;-60
2023/09/15 07:11:31;;;;;;;4.65;3.67;;;;;;;;;;5053677;28;20099;-60
2023/09/15 07:13:56;;;;;;;6.72;4.20;;;;;;;;;;5053826;28;20494;-60
2023/09/15 07:16:22;;;;;;;6.07;3.92;;;;;;;;;;5053364;28;20067;-60
2023/09/15 07:18:48;;;;;;;7.55;3.97;;;;;;;;;;5053313;28;20051;-60
2023/09/15 07:21:14;;;;;;;4.03;3.63;;;;;;;;;;5053697;28;20029;-60
2023/09/15 07:23:40;;;;;;;5.07;4.07;;;;;;;;;;5054119;28;20053;-60
2023/09/15 07:26:06;;;;;;;6.30;4.32;;;;;;;;;;5053376;28;20065;-60
2023/09/15 07:28:32;;;;;;;5.38;3.83;;;;;;;;;;5053583;28;20029;-60
2023/09/15 07:31:02;;;;;;;4.63;3.85;;;;;;;;;;5053510;28;20021;-60
2023/09/15 07:33:28;;;;;;;7.72;4.75;;;;;;;;;;5053188;28;20061;-60
2023/09/15 07:35:58;;;;;;;5.20;3.90;;;;;;;;;;5053274;28;20021;-60
2023/09/15 07:38:24;;;;;;;6.13;4.53;;;;;;;;;;5053038;28;20098;-60
2023/09/15 07:40:50;;;;;;;5.00;4.50;;;;;;;;;;5053349;28;20056;-60
2023/09/15 07:43:16;;;;;;;5.15;3.70;;;;;;;;;;5052805;28;20029;-60
2023/09/15 07:45:42;;;;;;;7.88;4.45;;;;;;;;;;5052984;28;20017;-60
2023/09/15 07:48:08;;;;;;;5.45;3.88;;;;;;;;;;5053904;28;20032;-60
2023/09/15 07:50:34;;;;;;;4.57;3.90;;;;;;;;;;5057315;28;20021;-60
2023/09/15 07:53:00;;;;;;;6.85;4.45;;;;;;;;;;5056980;28;20431;-60
2023/09/15 07:55:26;;;;;;;5.30;4.28;;;;;;;;;;5057411;28;20108;-60
2023/09/15 07:57:52;;;;;;;5.55;4.13;;;;;;;;;;5056762;28;20168;-60
2023/09/15 08:00:18;;;;;;;5.63;4.38;;;;;;;;;;5057090;28;20033;-60
2023/09/15 08:02:44;;;;;;;9.18;4.13;;;;;;;;;;5057343;28;20555;-60
2023/09/15 08:05:10;;;;;;;4.90;4.40;;;;;;;;;;5055222;28;20021;-60
2023/09/15 08:07:36;;;;;;;5.53;4.45;;;;;;;;;;5057073;28;20029;-60
2023/09/15 08:10:03;;;;;;;6.10;4.55;;;;;;;;;;5056597;28;20048;-60
2023/09/15 08:12:29;;;;;;;5.88;4.38;;;;;;;;;;5056639;28;20025;-60
2023/09/15 08:14:56;;;;;;;7.15;5.25;;;;;;;;;;5056573;28;20131;-60
2023/09/15 08:17:22;;;;;;;5.40;4.35;;;;;;;;;;5056769;28;20459;-60
2023/09/15 08:19:48;;;;;;;5.25;4.00;;;;;;;;;;5056632;28;20035;-60
2023/09/15 08:22:16;;;;;;;6.90;3.63;;;;;;;;;;5056214;28;20032;-60
2023/09/15 08:24:41;;;;;;;7.18;4.95;;;;;;;;;;5056639;28;20108;-60
2023/09/15 08:27:08;;;;;;;5.13;4.63;;;;;;;;;;5056228;28;20136;-60
2023/09/15 08:29:34;;;;;;;6.38;5.10;;;;;;;;;;5056519;28;20127;-60
2023/09/15 08:32:00;;;;;;;5.80;4.65;;;;;;;;;;5056064;28;20108;-60
2023/09/15 08:34:25;;;;;;;5.40;4.22;;;;;;;;;;5055852;28;20117;-60
2023/09/15 08:36:51;;;;;;;6.10;4.68;;;;;;;;;;5056065;28;20080;-60
2023/09/15 08:39:17;;;;;;;5.85;4.90;;;;;;;;;;5056027;28;20040;-60
2023/09/15 08:41:48;;;;;;;7.55;4.85;;;;;;;;;;5055978;28;20064;-60
2023/09/15 08:44:16;;;;;;;6.47;5.07;;;;;;;;;;5056914;28;20025;-60
2023/09/15 08:46:43;;;;;;;7.10;4.75;;;;;;;;;;5055975;28;20065;-60
2023/09/15 08:49:09;;;;;;;8.90;4.40;;;;;;;;;;5055875;28;20021;-60
2023/09/15 08:51:35;;;;;;;8.13;4.78;;;;;;;;;;5055864;28;20021;-60
2023/09/15 08:54:01;;;;;;;4.93;3.88;;;;;;;;;;5055868;28;20119;-60
2023/09/15 08:56:27;;;;;;;6.38;4.78;;;;;;;;;;5055752;28;20025;-60
2023/09/15 08:58:53;;;;;;;5.68;4.82;;;;;;;;;;5055575;28;20071;-60
2023/09/15 09:01:19;;;;;;;4.97;3.95;;;;;;;;;;5055403;28;20021;-60
2023/09/15 09:03:45;;;;;;;6.75;4.88;;;;;;;;;;5055671;28;20029;-60
2023/09/15 09:06:15;;;;;;;6.30;5.03;;;;;;;;;;5055644;28;20371;-60
2023/09/15 09:08:42;;;;;;;5.63;4.63;;;;;;;;;;5055971;28;20112;-60
2023/09/15 09:11:09;;;;;;;5.82;4.68;;;;;;;;;;5056102;28;20717;-60
2023/09/15 09:13:35;;;;;;;4.60;3.75;;;;;;;;;;5056002;28;20363;-60
2023/09/15 09:16:02;;;;;;;5.47;4.93;;;;;;;;;;5055460;28;20092;-60
2023/09/15 09:18:28;;;;;;;8.65;5.60;;;;;;;;;;5055766;28;20155;-60
2023/09/15 09:20:54;;;;;;;6.72;4.45;;;;;;;;;;5055924;28;20049;-60
2023/09/15 09:23:21;;;;;;;6.45;5.30;;;;;;;;;;5055612;28;20021;-60
2023/09/15 09:25:47;;;;;;;5.82;5.13;;;;;;;;;;5055237;28;20470;-60
2023/09/15 09:28:13;;;;;;;8.88;5.68;;;;;;;;;;5055213;28;20033;-60
2023/09/15 09:30:39;;;;;;;6.18;5.03;;;;;;;;;;5055908;28;20052;-60
2023/09/15 09:33:08;;;;;;;5.65;4.70;;;;;;;;;;5055088;28;20029;-60
2023/09/15 09:35:35;;;;;;;4.25;3.28;;;;;;;;;;5055557;28;20024;-60
2023/09/15 09:38:01;;;;;;;5.90;5.00;;;;;;;;;;5055174;28;20056;-60
2023/09/15 09:40:27;;;;;;;6.47;5.07;;;;;;;;;;5055198;28;20017;-60
2023/09/15 09:42:56;;;;;;;5.20;4.70;;;;;;;;;;5054892;28;20075;-60
2023/09/15 09:45:26;;;;;;;5.13;4.47;;;;;;;;;;5055116;28;20070;-60
2023/09/15 09:47:53;;;;;;;8.02;4.90;;;;;;;;;;5054620;28;20463;-60
2023/09/15 09:50:20;;;;;;;8.43;4.22;;;;;;;;;;5055407;28;20033;-60
2023/09/15 09:52:47;;;;;;;7.47;4.55;;;;;;;;;;5054243;28;20029;-60
2023/09/15 09:55:14;;;;;;;5.25;3.85;;;;;;;;;;5055159;28;20111;-60
2023/09/15 09:57:40;;;;;;;7.38;4.65;;;;;;;;;;5055200;28;20090;-60
2023/09/15 10:00:09;;;;;;;6.93;4.53;;;;;;;;;;5054533;28;20031;-60
2023/09/15 10:02:40;;;;;;;5.80;4.05;;;;;;;;;;5054425;28;20043;-60
2023/09/15 10:05:06;;;;;;;6.28;4.38;;;;;;;;;;5054667;28;20033;-60
2023/09/15 10:07:33;;;;;;;5.65;4.40;;;;;;;;;;5054372;28;20098;-60
2023/09/15 10:09:59;;;;;;;6.68;4.88;;;;;;;;;;5054984;28;20109;-60
2023/09/15 10:12:26;;;;;;;5.10;4.30;;;;;;;;;;5053963;28;20028;-60
2023/09/15 10:14:52;;;;;;;4.50;4.10;;;;;;;;;;5053856;28;20517;-60
2023/09/15 10:17:18;;;;;;;4.13;3.72;;;;;;;;;;5054778;28;20029;-60
2023/09/15 10:19:46;;;;;;;5.93;4.40;;;;;;;;;;5054434;28;20035;-60
2023/09/15 10:22:12;;;;;;;5.93;5.32;;;;;;;;;;5054060;28;20033;-60
2023/09/15 10:24:42;;;;;;;5.57;4.53;;;;;;;;;;5054294;28;20367;-60
2023/09/15 10:27:08;;;;;;;9.88;5.05;;;;;;;;;;5054578;28;20108;-60
2023/09/15 10:29:37;;;;;;;5.20;4.18;;;;;;;;;;5055143;28;20474;-60
2023/09/15 10:32:03;;;;;;;5.72;4.60;;;;;;;;;;5054028;28;20024;-60
2023/09/15 10:34:30;;;;;;;5.22;3.97;;;;;;;;;;5053867;28;20060;-58
2023/09/15 10:36:59;;;;;;;6.35;4.43;;;;;;;;;;5053947;28;20075;-60
2023/09/15 10:39:35;;;;;;;5.53;4.43;;;;;;;;;;5054121;28;20115;-60
2023/09/15 10:42:13;;;;;;;5.10;4.10;;;;;;;;;;5054410;28;20287;-60
2023/09/15 10:44:40;;;;;;;5.20;3.63;;;;;;;;;;5053984;28;20035;-60
2023/09/15 10:47:17;;;;;;;5.80;4.60;;;;;;;;;;5053807;28;20534;-60
2023/09/15 10:49:55;;;;;;;5.15;3.80;;;;;;;;;;5053730;28;20025;-60
2023/09/15 10:52:34;;;;;;;5.65;4.57;;;;;;;;;;5053757;28;20028;-60
2023/09/15 10:55:00;;;;;;;5.15;4.57;;;;;;;;;;5053692;28;20021;-60
2023/09/15 10:57:26;;;;;;;6.22;4.07;;;;;;;;;;5054096;28;20029;-60
2023/09/15 10:59:54;;;;;;;5.35;4.38;;;;;;;;;;5053561;28;20051;-60
2023/09/15 11:02:20;;;;;;;6.93;4.22;;;;;;;;;;5053954;28;20025;-60
2023/09/15 11:04:47;;;;;;;8.23;4.47;;;;;;;;;;5054124;28;20071;-60
2023/09/15 11:07:14;;;;;;;5.20;4.18;;;;;;;;;;5053658;28;20105;-60
2023/09/15 11:09:43;;;;;;;4.35;3.80;;;;;;;;;;5053780;28;20025;-60
2023/09/15 11:12:11;;;;;;;6.95;3.83;;;;;;;;;;5053528;28;20021;-60
2023/09/15 11:14:37;;;;;;;5.60;4.07;;;;;;;;;;5053690;28;20033;-60
2023/09/15 11:17:04;;;;;;;4.05;3.53;;;;;;;;;;5053461;28;20371;-60
2023/09/15 11:19:32;;;;;;;4.28;3.60;;;;;;;;;;5053929;28;20033;-60
2023/09/15 11:22:03;;;;;;;5.18;4.18;;;;;;;;;;5053820;28;20033;-60
2023/09/15 11:24:29;;;;;;;3.60;3.22;;;;;;;;;;5057191;28;20024;-60
2023/09/15 11:26:55;;;;;;;4.72;3.95;;;;;;;;;;5057856;28;20029;-60
2023/09/15 11:29:25;;;;;;;5.57;3.88;;;;;;;;;;5057663;28;20340;-60
2023/09/15 11:31:51;;;;;;;5.00;3.90;;;;;;;;;;5057340;28;20408;-61
2023/09/15 11:34:17;;;;;;;5.20;3.20;;;;;;;;;;5057364;28;20159;-60
2023/09/15 11:36:44;;;;;;;5.38;4.15;;;;;;;;;;5057563;28;20049;-60
2023/09/15 11:39:15;;;;;;;4.13;3.72;;;;;;;;;;5057463;28;20029;-60
2023/09/15 11:41:53;;;;;;;4.78;3.83;;;;;;;;;;5057519;28;20493;-60
2023/09/15 11:44:31;;;;;;;4.93;3.95;;;;;;;;;;5057601;28;20025;-60
2023/09/15 11:46:58;;;;;;;5.50;4.22;;;;;;;;;;5056822;28;20428;-60
2023/09/15 11:49:25;;;;;;;4.78;3.83;;;;;;;;;;5057117;28;20066;-61
2023/09/15 11:51:52;;;;;;;5.78;3.97;;;;;;;;;;5057542;28;20025;-61
2023/09/15 11:54:19;;;;;;;4.07;3.67;;;;;;;;;;5056943;28;20046;-60
2023/09/15 11:56:46;;;;;;;4.40;3.63;;;;;;;;;;5056792;28;20106;-60
2023/09/15 11:59:13;;;;;;;4.40;3.45;;;;;;;;;;5057856;28;20043;-60
2023/09/15 12:01:40;;;;;;;5.20;4.03;;;;;;;;;;5056849;28;20021;-60
2023/09/15 12:04:06;;;;;;;4.93;3.47;;;;;;;;;;5057025;28;20078;-61
2023/09/15 12:06:32;;;;;;;4.13;3.58;;;;;;;;;;5056650;28;20032;-60
2023/09/15 12:08:58;;;;;;;4.15;3.10;;;;;;;;;;5057172;28;20017;-61
2023/09/15 12:11:24;;;;;;;8.68;3.22;;;;;;;;;;5056410;28;20421;-61
2023/09/15 12:13:54;;;;;;;5.30;3.15;;;;;;;;;;5057133;28;20056;-60
2023/09/15 12:16:27;;;;;;;4.50;3.38;;;;;;;;;;5056832;28;20051;-61
2023/09/15 12:18:54;;;;;;;4.30;3.90;;;;;;;;;;5057225;28;20091;-60
2023/09/15 12:21:28;;;;;;;5.53;3.85;;;;;;;;;;5057066;28;20371;-60
2023/09/15 12:23:54;;;;;;;3.75;3.25;;;;;;;;;;5056455;28;20029;-60
2023/09/15 12:26:21;;;;;;;4.53;3.30;;;;;;;;;;5056415;28;20025;-61
2023/09/15 12:28:48;;;;;;;3.45;2.50;;;;;;;;;;5056552;28;20107;-60
2023/09/15 12:31:18;;;;;;;3.28;2.17;;;;;;;;;;5057112;28;20075;-60
2023/09/15 12:34:05;;;;;;;4.43;3.00;;;;;;;;;;5056098;28;20478;-61
2023/09/15 12:36:31;;;;;;;3.17;2.45;;;;;;;;;;5056371;28;20414;-60
2023/09/15 12:38:56;;;;;;;4.13;2.80;;;;;;;;;;5056598;28;20033;-61
2023/09/15 12:41:24;;;;;;;3.75;2.72;;;;;;;;;;5055886;28;20024;-61
2023/09/15 12:43:49;;;;;;;3.28;2.75;;;;;;;;;;5056078;28;20057;-60
2023/09/15 12:46:16;;;;;;;3.35;2.63;;;;;;;;;;5055659;28;20052;-61
2023/09/15 12:48:42;;;;;;;4.68;3.17;;;;;;;;;;5055891;28;20430;-61
2023/09/15 12:51:07;;;;;;;3.30;2.70;;;;;;;;;;5056533;28;20070;-61
2023/09/15 12:53:33;;;;;;;5.97;2.92;;;;;;;;;;5056628;28;20025;-61
2023/09/15 12:56:00;;;;;;;3.97;2.97;;;;;;;;;;5055537;28;20100;-61
2023/09/15 12:58:26;;;;;;;3.95;3.00;;;;;;;;;;5055572;28;20049;-61
2023/09/15 13:00:52;;;;;;;3.40;2.85;;;;;;;;;;5056341;28;20124;-61
2023/09/15 13:03:20;;;;;;;3.33;2.65;;;;;;;;;;5056083;28;20031;-61
2023/09/15 13:05:46;;;;;;;5.72;3.28;;;;;;;;;;5055590;28;20433;-61
2023/09/15 13:08:11;;;;;;;3.75;3.25;;;;;;;;;;5055505;28;20060;-61
2023/09/15 13:10:37;;;;;;;3.53;2.80;;;;;;;;;;5055755;28;20071;-61
2023/09/15 13:13:03;;;;;;;4.53;3.60;;;;;;;;;;5055987;28;20025;-60
2023/09/15 13:15:30;;;;;;;4.70;3.38;;;;;;;;;;5055377;28;20356;-61
2023/09/15 13:17:56;;;;;;;4.25;3.55;;;;;;;;;;5055558;28;20051;-61
2023/09/15 13:20:23;;;;;;;4.35;3.33;;;;;;;;;;5055798;28;20412;-60
2023/09/15 13:22:49;;;;;;;4.50;2.90;;;;;;;;;;5055840;28;20021;-61
2023/09/15 13:25:15;;;;;;;3.75;3.38;;;;;;;;;;5055331;28;20029;-61
2023/09/15 13:27:44;;;;;;;5.72;3.50;;;;;;;;;;5055209;28;20367;-61
2023/09/15 13:30:11;;;;;;;4.97;3.58;;;;;;;;;;5055656;28;20111;-61
2023/09/15 13:32:37;;;;;;;3.80;3.33;;;;;;;;;;5055136;28;20021;-61
2023/09/15 13:35:04;;;;;;;5.10;3.85;;;;;;;;;;5055017;28;20017;-61
2023/09/15 13:37:30;;;;;;;4.22;3.38;;;;;;;;;;5055070;28;20367;-61
2023/09/15 13:39:56;;;;;;;5.78;3.70;;;;;;;;;;5055429;28;20044;-61
2023/09/15 13:42:32;;;;;;;4.90;3.78;;;;;;;;;;5054959;28;20032;-61
2023/09/15 13:45:05;;;;;;;5.68;4.35;;;;;;;;;;5055108;28;20455;-61
2023/09/15 13:47:34;;;;;;;4.82;3.47;;;;;;;;;;5054924;28;20028;-61
2023/09/15 13:50:00;;;;;;;3.78;3.17;;;;;;;;;;5055080;28;20025;-61
2023/09/15 13:52:30;;;;;;;5.53;3.63;;;;;;;;;;5054667;28;20448;-61
2023/09/15 13:54:57;;;;;;;3.77;3.03;;;;;;;;;;5054741;28;20033;-61
2023/09/15 13:57:23;;;;;;;4.40;3.40;;;;;;;;;;5055365;28;20025;-61
2023/09/15 13:59:50;;;;;;;3.40;2.55;;;;;;;;;;5054550;28;20035;-61
2023/09/15 14:02:15;;;;;;;5.55;4.10;;;;;;;;;;5054449;28;20021;-61
2023/09/15 14:04:41;;;;;;;4.70;3.25;;;;;;;;;;5054485;28;20071;-61
2023/09/15 14:07:07;;;;;;;4.97;3.45;;;;;;;;;;5054972;28;20018;-61
2023/09/15 14:09:36;;;;;;;4.20;2.97;;;;;;;;;;5054923;28;20025;-61
2023/09/15 14:12:03;;;;;;;4.10;3.65;;;;;;;;;;5054905;28;20409;-61
2023/09/15 14:14:29;;;;;;;4.22;2.92;;;;;;;;;;5054326;28;20083;-61
2023/09/15 14:16:55;;;;;;;4.70;3.50;;;;;;;;;;5054792;28;20025;-61
2023/09/15 14:19:21;;;;;;;5.57;3.63;;;;;;;;;;5054358;28;20538;-61
2023/09/15 14:21:48;;;;;;;4.78;3.78;;;;;;;;;;5053745;28;20112;-61
2023/09/15 14:24:14;;;;;;;4.55;2.53;;;;;;;;;;5054733;28;20336;-60
2023/09/15 14:26:41;;;;;;;4.43;4.00;;;;;;;;;;5054717;28;20032;-61
2023/09/15 14:29:07;;;;;;;4.80;3.63;;;;;;;;;;5053817;28;20025;-61
2023/09/15 14:31:33;;;;;;;8.05;3.58;;;;;;;;;;5053962;28;20029;-60
2023/09/15 14:34:00;;;;;;;5.75;3.70;;;;;;;;;;5054063;28;20029;-61
2023/09/15 14:36:27;;;;;;;5.68;4.70;;;;;;;;;;5053680;28;20471;-61
2023/09/15 14:38:53;;;;;;;4.47;3.85;;;;;;;;;;5054410;28;20029;-61
2023/09/15 14:41:19;;;;;;;6.10;4.03;;;;;;;;;;5054471;28;20025;-61